Time;durP1;ratioP1;P1;durP2;ratioP2;P2;SDS_P1;SDS_P2;PMS_P1;PMS_P2;Temp;Humidity;BMP_temperature;BMP_pressure;BME280_temperature;BME280_humidity;BME280_pressure;Samples;Min_cycle;Max_cycle;Signal;HPM_P1;HPM_P2
2021/11/25 00:01:47;;;;;;;0.70;0.70;;;3.10;99.90;;;;;;5055021;28;20079;-77
2021/11/25 00:04:13;;;;;;;0.20;0.20;;;3.10;99.90;;;;;;5053616;28;20071;-77
2021/11/25 00:06:39;;;;;;;0.80;0.80;;;3.10;99.90;;;;;;5054899;28;20037;-78
2021/11/25 00:09:04;;;;;;;2.33;1.65;;;3.10;99.90;;;;;;5054664;28;20100;-77
2021/11/25 00:11:30;;;;;;;0.25;0.25;;;3.20;99.90;;;;;;5054790;28;20078;-77
2021/11/25 00:13:56;;;;;;;1.50;1.42;;;3.20;99.90;;;;;;5053312;28;20029;-78
2021/11/25 00:16:21;;;;;;;0.38;0.35;;;3.20;99.90;;;;;;5054627;28;20555;-77
2021/11/25 00:18:47;;;;;;;0.30;0.30;;;3.20;99.90;;;;;;5054543;28;20033;-77
2021/11/25 00:21:13;;;;;;;0.22;0.22;;;3.20;99.90;;;;;;5054550;28;20025;-77
2021/11/25 00:23:41;;;;;;;0.98;0.55;;;3.20;99.90;;;;;;5054788;28;20032;-77
2021/11/25 00:26:07;;;;;;;1.52;0.73;;;3.20;99.90;;;;;;5052657;28;20057;-77
2021/11/25 00:28:33;;;;;;;0.75;0.75;;;3.20;99.90;;;;;;5054603;28;20426;-77
2021/11/25 00:31:00;;;;;;;0.70;0.70;;;3.20;99.90;;;;;;5054572;28;20082;-77
2021/11/25 00:33:27;;;;;;;0.22;0.22;;;3.20;99.90;;;;;;5053814;28;20021;-77
2021/11/25 00:35:53;;;;;;;0.08;0.08;;;3.20;99.90;;;;;;5053407;28;20505;-77
2021/11/25 00:38:20;;;;;;;0.00;0.00;;;3.10;99.90;;;;;;5054475;28;20025;-77
2021/11/25 00:40:45;;;;;;;0.65;0.65;;;3.20;99.90;;;;;;5054332;28;20029;-77
2021/11/25 00:43:11;;;;;;;1.60;1.08;;;3.20;99.90;;;;;;5053954;28;20454;-78
2021/11/25 00:45:37;;;;;;;0.20;0.20;;;3.20;99.90;;;;;;5054191;28;20035;-77
2021/11/25 00:48:03;;;;;;;5.95;1.25;;;3.20;99.90;;;;;;5053925;28;20511;-77
2021/11/25 00:50:29;;;;;;;0.35;0.35;;;3.30;99.90;;;;;;5052843;28;20025;-77
2021/11/25 00:52:55;;;;;;;0.32;0.32;;;3.20;99.90;;;;;;5054017;28;20036;-77
2021/11/25 00:55:21;;;;;;;1.20;0.80;;;3.30;99.90;;;;;;5053648;28;20467;-77
2021/11/25 00:57:47;;;;;;;5.47;1.10;;;3.30;99.90;;;;;;5052464;28;20059;-77
2021/11/25 01:00:18;;;;;;;1.10;1.10;;;3.30;99.90;;;;;;5052253;28;20088;-77
2021/11/25 01:02:45;;;;;;;0.60;0.60;;;3.30;99.90;;;;;;5053758;28;20454;-77
2021/11/25 01:05:12;;;;;;;0.40;0.40;;;3.30;99.90;;;;;;5053534;28;20104;-78
2021/11/25 01:07:38;;;;;;;1.13;0.47;;;3.30;99.90;;;;;;5052544;28;20032;-77
2021/11/25 01:10:05;;;;;;;1.58;0.35;;;3.30;99.90;;;;;;5053609;28;20013;-77
2021/11/25 01:12:31;;;;;;;1.05;0.52;;;3.30;99.90;;;;;;5052464;28;20108;-77
2021/11/25 01:14:58;;;;;;;0.90;0.90;;;3.30;99.90;;;;;;5053784;28;20099;-77
2021/11/25 01:17:24;;;;;;;1.90;0.90;;;3.20;99.90;;;;;;5053461;28;20037;-78
2021/11/25 01:19:50;;;;;;;0.90;0.85;;;3.20;99.90;;;;;;5053393;28;20025;-77
2021/11/25 01:22:16;;;;;;;0.70;0.70;;;3.20;99.90;;;;;;5053542;28;20031;-78
2021/11/25 01:24:42;;;;;;;0.40;0.40;;;3.20;99.90;;;;;;5053115;28;20041;-77
2021/11/25 01:27:07;;;;;;;0.98;0.70;;;3.20;99.90;;;;;;5053304;28;20399;-77
2021/11/25 01:29:33;;;;;;;0.73;0.73;;;3.20;99.90;;;;;;5052037;28;20024;-77
2021/11/25 01:31:59;;;;;;;0.17;0.17;;;3.20;99.90;;;;;;5053025;28;20488;-77
2021/11/25 01:34:25;;;;;;;0.32;0.32;;;3.30;99.90;;;;;;5053043;28;20021;-77
2021/11/25 01:36:50;;;;;;;0.47;0.47;;;3.20;99.90;;;;;;5052069;28;20032;-77
2021/11/25 01:39:17;;;;;;;0.30;0.30;;;3.20;99.90;;;;;;5053176;28;20132;-77
2021/11/25 01:41:44;;;;;;;0.00;0.00;;;3.20;99.90;;;;;;5053513;28;20021;-78
2021/11/25 01:44:10;;;;;;;0.57;0.57;;;3.20;99.90;;;;;;5053051;28;20024;-77
2021/11/25 01:46:36;;;;;;;0.43;0.25;;;3.20;99.90;;;;;;5052894;28;20035;-78
2021/11/25 01:49:03;;;;;;;0.30;0.30;;;3.20;99.90;;;;;;5052924;28;20100;-77
2021/11/25 01:51:29;;;;;;;0.40;0.35;;;3.20;99.90;;;;;;5051665;28;20047;-77
2021/11/25 01:53:57;;;;;;;2.45;1.27;;;3.20;99.90;;;;;;5052817;28;20021;-77
2021/11/25 01:56:24;;;;;;;0.52;0.52;;;3.20;99.90;;;;;;5051136;28;20372;-78
2021/11/25 01:58:50;;;;;;;1.15;0.82;;;3.20;99.90;;;;;;5051502;28;20083;-77
2021/11/25 02:01:19;;;;;;;0.32;0.32;;;3.20;99.90;;;;;;5052423;28;20029;-77
2021/11/25 02:03:46;;;;;;;0.00;0.00;;;3.20;99.90;;;;;;5052664;28;20027;-77
2021/11/25 02:06:14;;;;;;;0.88;0.88;;;3.20;99.90;;;;;;5052755;28;20021;-77
2021/11/25 02:08:40;;;;;;;0.30;0.30;;;3.20;99.90;;;;;;5052542;28;20028;-77
2021/11/25 02:11:07;;;;;;;0.85;0.85;;;3.20;99.90;;;;;;5052536;28;20571;-77
2021/11/25 02:13:33;;;;;;;0.93;0.73;;;3.20;99.90;;;;;;5052505;28;20021;-78
2021/11/25 02:15:59;;;;;;;1.15;1.05;;;3.20;99.90;;;;;;5052686;28;20040;-77
2021/11/25 02:18:26;;;;;;;2.85;1.55;;;3.20;99.90;;;;;;5050741;28;20021;-77
2021/11/25 02:20:58;;;;;;;2.85;0.73;;;3.20;99.90;;;;;;5052213;28;20487;-78
2021/11/25 02:23:24;;;;;;;1.10;0.93;;;3.20;99.90;;;;;;5052553;28;20060;-77
2021/11/25 02:25:50;;;;;;;0.55;0.55;;;3.20;99.90;;;;;;5052259;28;20049;-77
2021/11/25 02:28:28;;;;;;;0.82;0.70;;;3.20;99.90;;;;;;5052279;28;20029;-78
2021/11/25 02:30:54;;;;;;;0.70;0.60;;;3.30;99.90;;;;;;5052728;28;20021;-77
2021/11/25 02:33:19;;;;;;;1.23;1.15;;;3.30;99.90;;;;;;5050899;28;20020;-77
2021/11/25 02:35:45;;;;;;;0.88;0.88;;;3.30;99.90;;;;;;5052665;28;20055;-77
2021/11/25 02:38:13;;;;;;;0.88;0.45;;;3.30;99.90;;;;;;5052151;28;20021;-77
2021/11/25 02:40:57;;;;;;;0.55;0.52;;;3.30;99.90;;;;;;5052278;28;20043;-77
2021/11/25 02:43:25;;;;;;;2.53;0.73;;;3.30;99.90;;;;;;5051107;28;20032;-77
2021/11/25 02:46:01;;;;;;;3.00;2.08;;;3.30;99.90;;;;;;5052214;28;20078;-77
2021/11/25 02:48:54;;;;;;;1.15;0.70;;;3.30;99.90;;;;;;5052148;28;20472;-77
2021/11/25 02:51:26;;;;;;;0.43;0.20;;;3.30;99.90;;;;;;5051009;28;20441;-77
2021/11/25 02:53:53;;;;;;;0.55;0.55;;;3.30;99.90;;;;;;5052388;28;20021;-78
2021/11/25 02:56:22;;;;;;;0.52;0.30;;;3.30;99.90;;;;;;5052326;28;20142;-77
2021/11/25 02:58:50;;;;;;;1.00;0.40;;;3.30;99.90;;;;;;5049579;28;20472;-77
2021/11/25 03:01:19;;;;;;;0.13;0.13;;;3.30;99.90;;;;;;5050334;28;20071;-77
2021/11/25 03:03:46;;;;;;;1.40;1.20;;;3.30;99.90;;;;;;5051538;28;20058;-77
2021/11/25 03:06:12;;;;;;;0.32;0.32;;;3.30;99.90;;;;;;5052106;28;20036;-77
2021/11/25 03:08:38;;;;;;;0.43;0.43;;;3.30;99.90;;;;;;5055115;28;20484;-77
2021/11/25 03:11:09;;;;;;;0.50;0.50;;;3.30;99.90;;;;;;5055218;28;20870;-77
2021/11/25 03:13:41;;;;;;;0.03;0.03;;;3.30;99.90;;;;;;5055929;28;20078;-77
2021/11/25 03:16:09;;;;;;;2.92;1.40;;;3.30;99.90;;;;;;5055576;28;20029;-77
2021/11/25 03:18:35;;;;;;;0.20;0.20;;;3.30;99.90;;;;;;5055859;28;20415;-77
2021/11/25 03:21:01;;;;;;;0.55;0.55;;;3.30;99.90;;;;;;5055895;28;20017;-77
2021/11/25 03:23:29;;;;;;;0.30;0.30;;;3.30;99.90;;;;;;5055633;28;20094;-77
2021/11/25 03:25:57;;;;;;;0.77;0.70;;;3.30;99.90;;;;;;5055555;28;20045;-77
2021/11/25 03:28:23;;;;;;;1.15;1.10;;;3.30;99.90;;;;;;5054117;28;20104;-77
2021/11/25 03:30:54;;;;;;;2.22;1.30;;;3.30;99.90;;;;;;5055243;28;20021;-77
2021/11/25 03:33:25;;;;;;;1.92;1.08;;;3.30;99.90;;;;;;5055240;28;20490;-77
2021/11/25 03:35:51;;;;;;;0.55;0.55;;;3.30;99.90;;;;;;5055626;28;20035;-78
2021/11/25 03:38:17;;;;;;;3.10;2.35;;;3.40;99.90;;;;;;5055555;28;20531;-77
2021/11/25 03:40:42;;;;;;;0.82;0.77;;;3.40;99.90;;;;;;5055566;28;20020;-77
2021/11/25 03:43:08;;;;;;;0.65;0.52;;;3.40;99.90;;;;;;5054001;28;20040;-77
2021/11/25 03:45:35;;;;;;;0.20;0.20;;;3.40;99.90;;;;;;5055338;28;20029;-77
2021/11/25 03:48:01;;;;;;;2.10;1.33;;;3.40;99.90;;;;;;5053821;28;20056;-77
2021/11/25 03:50:27;;;;;;;0.52;0.52;;;3.40;99.90;;;;;;5054961;28;20442;-77
2021/11/25 03:52:53;;;;;;;0.30;0.30;;;3.40;99.90;;;;;;5055075;28;20029;-77
2021/11/25 03:55:19;;;;;;;6.55;1.27;;;3.50;99.90;;;;;;5055260;28;20170;-77
2021/11/25 03:57:46;;;;;;;4.03;1.65;;;3.40;99.90;;;;;;5052153;28;20519;-77
2021/11/25 04:00:14;;;;;;;1.00;0.63;;;3.40;99.90;;;;;;5054395;28;20434;-77
2021/11/25 04:02:44;;;;;;;1.23;0.52;;;3.40;99.90;;;;;;5053924;28;20033;-77
2021/11/25 04:05:10;;;;;;;0.20;0.20;;;3.40;99.90;;;;;;5053409;28;20520;-77
2021/11/25 04:07:36;;;;;;;0.70;0.35;;;3.40;99.90;;;;;;5054753;28;20029;-78
2021/11/25 04:10:04;;;;;;;1.40;1.30;;;3.30;99.90;;;;;;5053493;28;20395;-77
2021/11/25 04:12:29;;;;;;;1.13;0.85;;;3.40;99.90;;;;;;5053575;28;20021;-77
2021/11/25 04:14:55;;;;;;;0.65;0.65;;;3.40;99.90;;;;;;5055103;28;20028;-77
2021/11/25 04:17:21;;;;;;;2.72;0.80;;;3.40;99.90;;;;;;5054233;28;20047;-77
2021/11/25 04:19:51;;;;;;;3.30;0.90;;;3.40;99.90;;;;;;5054175;28;20104;-77
2021/11/25 04:22:20;;;;;;;3.78;1.55;;;3.40;99.90;;;;;;5054759;28;20056;-77
2021/11/25 04:24:47;;;;;;;1.45;1.30;;;3.40;99.90;;;;;;5054285;28;20048;-77
2021/11/25 04:27:12;;;;;;;1.67;0.98;;;3.50;99.90;;;;;;5054444;28;20099;-78
2021/11/25 04:29:41;;;;;;;1.02;0.73;;;3.50;99.90;;;;;;5054328;28;20105;-78
2021/11/25 04:37:35;;;;;;;0.15;0.15;;;3.50;99.90;;;;;;5054750;28;20076;-77
2021/11/25 04:40:01;;;;;;;2.75;1.27;;;3.50;99.90;;;;;;5054413;28;20028;-78
2021/11/25 04:42:27;;;;;;;0.43;0.43;;;3.60;99.90;;;;;;5054834;28;20103;-77
2021/11/25 04:44:52;;;;;;;0.70;0.70;;;3.60;99.90;;;;;;5052766;28;20021;-77
2021/11/25 04:47:18;;;;;;;3.00;1.30;;;3.60;99.90;;;;;;5054091;28;20434;-77
2021/11/25 04:49:44;;;;;;;0.60;0.45;;;3.70;99.90;;;;;;5054110;28;20021;-77
2021/11/25 04:52:09;;;;;;;0.17;0.17;;;3.70;99.90;;;;;;5053754;28;20037;-77
2021/11/25 04:54:35;;;;;;;1.08;0.52;;;3.80;99.90;;;;;;5052782;28;20025;-77
2021/11/25 04:57:01;;;;;;;0.05;0.05;;;3.80;99.90;;;;;;5054035;28;20036;-77
2021/11/25 04:59:26;;;;;;;0.45;0.45;;;3.80;99.90;;;;;;5050827;28;20025;-77
2021/11/25 05:01:52;;;;;;;0.68;0.52;;;3.80;99.90;;;;;;5053568;28;20541;-77
2021/11/25 05:04:17;;;;;;;0.60;0.60;;;3.90;99.90;;;;;;5053583;28;20028;-77
2021/11/25 05:06:43;;;;;;;0.85;0.55;;;3.90;99.90;;;;;;5053751;28;20029;-77
2021/11/25 05:09:09;;;;;;;0.90;0.90;;;3.90;99.90;;;;;;5053158;28;20075;-77
2021/11/25 05:11:35;;;;;;;0.10;0.10;;;3.90;99.90;;;;;;5052618;28;20025;-77
2021/11/25 05:14:00;;;;;;;2.90;1.38;;;3.90;99.90;;;;;;5053693;28;20028;-77
2021/11/25 05:16:26;;;;;;;0.55;0.55;;;3.90;99.90;;;;;;5053354;28;20044;-77
2021/11/25 05:18:52;;;;;;;1.70;0.98;;;3.90;99.90;;;;;;5053697;28;20116;-77
2021/11/25 05:21:17;;;;;;;1.77;0.85;;;3.90;99.90;;;;;;5053415;28;20025;-77
2021/11/25 05:23:43;;;;;;;1.30;1.20;;;3.90;99.90;;;;;;5053662;28;20107;-77
2021/11/25 05:26:09;;;;;;;0.63;0.63;;;3.90;99.90;;;;;;5051383;28;20045;-77
2021/11/25 05:28:34;;;;;;;0.45;0.30;;;3.90;99.90;;;;;;5053309;28;20125;-77
2021/11/25 05:31:00;;;;;;;0.70;0.65;;;3.90;99.90;;;;;;5052571;28;20021;-77
2021/11/25 05:33:26;;;;;;;0.22;0.22;;;3.90;99.90;;;;;;5052882;28;20033;-77
2021/11/25 05:35:52;;;;;;;9.27;0.98;;;3.90;99.90;;;;;;5053233;28;20021;-77
2021/11/25 05:38:17;;;;;;;0.57;0.57;;;3.90;99.90;;;;;;5053320;28;20035;-78
2021/11/25 05:40:45;;;;;;;0.60;0.60;;;3.90;99.90;;;;;;5053443;28;20025;-78
2021/11/25 05:43:11;;;;;;;0.28;0.28;;;3.90;99.90;;;;;;5052863;28;20039;-77
2021/11/25 05:45:36;;;;;;;4.50;1.02;;;3.90;99.90;;;;;;5051565;28;20565;-77
2021/11/25 05:48:02;;;;;;;1.67;0.63;;;3.90;99.90;;;;;;5052730;28;20029;-78
2021/11/25 05:50:28;;;;;;;0.47;0.47;;;3.90;99.90;;;;;;5053035;28;20013;-78
2021/11/25 05:52:56;;;;;;;0.52;0.45;;;3.90;99.90;;;;;;5051490;28;20036;-78
2021/11/25 05:55:26;;;;;;;0.05;0.05;;;3.90;99.90;;;;;;5050537;28;20090;-78
2021/11/25 05:57:52;;;;;;;0.70;0.70;;;3.90;99.90;;;;;;5051862;28;20113;-78
2021/11/25 06:00:18;;;;;;;0.25;0.25;;;3.90;99.90;;;;;;5048825;28;20116;-78
2021/11/25 06:02:46;;;;;;;0.70;0.70;;;3.90;99.90;;;;;;5052488;28;20036;-78
2021/11/25 06:05:14;;;;;;;1.95;1.67;;;4.00;99.90;;;;;;5051241;28;20075;-78
2021/11/25 06:07:44;;;;;;;0.65;0.65;;;4.00;99.90;;;;;;5052564;28;20104;-77
2021/11/25 06:10:11;;;;;;;0.90;0.32;;;4.00;99.90;;;;;;5052314;28;20017;-78
2021/11/25 06:12:37;;;;;;;1.00;1.00;;;4.00;99.90;;;;;;5052230;28;20048;-77
2021/11/25 06:15:04;;;;;;;1.17;0.98;;;4.00;99.90;;;;;;5052357;28;20059;-77
2021/11/25 06:17:29;;;;;;;0.50;0.50;;;4.00;99.90;;;;;;5052062;28;20041;-78
2021/11/25 06:19:55;;;;;;;0.50;0.50;;;4.00;99.90;;;;;;5052325;28;20112;-77
2021/11/25 06:22:22;;;;;;;1.42;1.30;;;4.00;99.90;;;;;;5052488;28;20051;-78
2021/11/25 06:24:50;;;;;;;0.57;0.55;;;4.00;99.90;;;;;;5052211;28;20049;-78
2021/11/25 06:27:16;;;;;;;1.48;1.13;;;4.00;99.90;;;;;;5052864;28;20575;-78
2021/11/25 06:29:42;;;;;;;0.15;0.15;;;4.00;99.90;;;;;;5052233;28;20541;-78
2021/11/25 06:32:08;;;;;;;0.40;0.40;;;4.00;99.90;;;;;;5052034;28;20025;-78
2021/11/25 06:34:34;;;;;;;1.77;1.58;;;4.00;99.90;;;;;;5052155;28;20023;-78
2021/11/25 06:36:59;;;;;;;0.88;0.30;;;4.00;99.90;;;;;;5052205;28;20029;-78
2021/11/25 06:39:25;;;;;;;0.20;0.20;;;4.00;99.90;;;;;;5051660;28;20021;-78
2021/11/25 06:41:51;;;;;;;1.95;1.85;;;4.00;99.90;;;;;;5053836;28;20521;-78
2021/11/25 06:44:16;;;;;;;5.78;0.98;;;4.00;99.90;;;;;;5055974;28;20036;-78
2021/11/25 06:46:42;;;;;;;0.15;0.15;;;4.00;99.90;;;;;;5055345;28;20028;-78
2021/11/25 06:49:08;;;;;;;0.43;0.30;;;4.00;99.90;;;;;;5055913;28;20021;-78
2021/11/25 06:51:33;;;;;;;1.65;1.25;;;4.00;99.90;;;;;;5048996;28;20029;-79
2021/11/25 06:53:59;;;;;;;0.88;0.88;;;4.10;99.90;;;;;;5055724;28;20053;-79
2021/11/25 06:56:25;;;;;;;0.38;0.38;;;4.10;99.90;;;;;;5055968;28;20039;-78
2021/11/25 06:58:52;;;;;;;0.80;0.52;;;4.10;99.90;;;;;;5053292;28;20029;-78
2021/11/25 07:01:18;;;;;;;0.93;0.57;;;4.10;99.90;;;;;;5054189;28;20610;-78
2021/11/25 07:03:44;;;;;;;0.47;0.47;;;4.10;99.90;;;;;;5055414;28;20104;-78
2021/11/25 07:06:10;;;;;;;2.63;1.02;;;4.10;99.90;;;;;;5053539;28;20123;-78
2021/11/25 07:08:36;;;;;;;1.77;1.05;;;4.20;99.90;;;;;;5053309;28;20038;-79
2021/11/25 07:11:01;;;;;;;1.45;0.88;;;4.20;99.90;;;;;;5050352;28;20033;-78
2021/11/25 07:13:27;;;;;;;0.00;0.00;;;4.20;99.90;;;;;;5046460;28;20025;-80
2021/11/25 07:15:54;;;;;;;0.22;0.22;;;4.10;99.90;;;;;;5047446;28;20029;-80
2021/11/25 07:18:19;;;;;;;0.10;0.10;;;4.10;99.90;;;;;;5051640;28;20032;-80
2021/11/25 07:20:45;;;;;;;0.30;0.30;;;4.20;99.90;;;;;;5052782;28;20032;-80
2021/11/25 07:23:11;;;;;;;0.43;0.43;;;4.20;99.90;;;;;;5052964;28;20025;-80
2021/11/25 07:25:36;;;;;;;0.98;0.98;;;4.20;99.90;;;;;;5052519;28;20119;-80
2021/11/25 07:28:03;;;;;;;0.43;0.43;;;4.20;99.90;;;;;;5051020;28;20029;-80
2021/11/25 07:30:28;;;;;;;0.70;0.70;;;4.20;99.90;;;;;;5052172;28;20043;-80
2021/11/25 07:32:54;;;;;;;0.20;0.20;;;4.20;99.90;;;;;;5052269;28;20025;-80
2021/11/25 07:35:22;;;;;;;0.68;0.68;;;4.20;99.90;;;;;;5051137;28;20032;-78
2021/11/25 07:37:51;;;;;;;0.10;0.10;;;4.30;99.90;;;;;;5045841;28;20021;-77
2021/11/25 07:40:17;;;;;;;0.70;0.70;;;4.30;99.90;;;;;;5054183;28;20377;-80
2021/11/25 07:42:43;;;;;;;0.13;0.10;;;4.40;99.90;;;;;;5054581;28;20028;-79
2021/11/25 07:45:09;;;;;;;0.40;0.28;;;4.30;99.90;;;;;;5053634;28;20039;-79
2021/11/25 07:47:37;;;;;;;0.30;0.30;;;4.40;99.90;;;;;;5053664;28;20096;-79
2021/11/25 07:50:09;;;;;;;0.10;0.10;;;4.40;99.90;;;;;;5052353;28;20037;-78
2021/11/25 07:52:35;;;;;;;0.00;0.00;;;4.50;99.90;;;;;;5052377;28;20025;-78
2021/11/25 07:55:01;;;;;;;0.43;0.43;;;4.50;99.90;;;;;;5052352;28;20029;-79
2021/11/25 07:57:27;;;;;;;2.72;1.55;;;4.50;99.90;;;;;;5052399;28;20039;-76
2021/11/25 07:59:53;;;;;;;0.70;0.70;;;4.60;99.90;;;;;;5047364;28;20033;-78
2021/11/25 08:02:20;;;;;;;1.08;0.50;;;4.60;99.90;;;;;;5052420;28;20025;-77
2021/11/25 08:04:46;;;;;;;1.85;0.85;;;4.70;99.90;;;;;;5050552;28;20109;-76
2021/11/25 08:07:12;;;;;;;1.98;0.90;;;4.70;99.90;;;;;;5047144;28;20016;-76
2021/11/25 08:09:38;;;;;;;0.95;0.88;;;4.70;99.90;;;;;;5051226;28;20092;-76
2021/11/25 08:12:05;;;;;;;0.45;0.45;;;4.80;99.90;;;;;;5040127;28;20075;-75
2021/11/25 08:14:30;;;;;;;0.28;0.28;;;4.80;99.90;;;;;;5046488;28;20200;-76
2021/11/25 08:16:58;;;;;;;0.32;0.32;;;4.90;99.90;;;;;;5046476;28;20427;-77
2021/11/25 08:19:25;;;;;;;3.38;0.98;;;5.00;99.90;;;;;;5049905;28;20039;-76
2021/11/25 08:21:51;;;;;;;0.65;0.50;;;5.10;99.90;;;;;;5050496;28;20025;-77
2021/11/25 08:24:17;;;;;;;0.10;0.10;;;5.10;99.90;;;;;;5049529;28;20045;-76
2021/11/25 08:26:42;;;;;;;6.32;1.13;;;5.10;99.90;;;;;;5049369;28;20041;-74
2021/11/25 08:29:08;;;;;;;1.50;0.68;;;5.20;99.90;;;;;;5051552;28;20539;-74
2021/11/25 08:31:34;;;;;;;0.38;0.25;;;5.20;99.90;;;;;;5050780;28;20045;-75
2021/11/25 08:33:59;;;;;;;1.30;0.52;;;5.40;99.90;;;;;;5051595;28;20048;-74
2021/11/25 08:36:25;;;;;;;1.55;1.45;;;5.40;99.90;;;;;;5048390;28;20403;-75
2021/11/25 08:38:51;;;;;;;3.42;2.08;;;5.50;99.90;;;;;;5050958;28;20033;-75
2021/11/25 08:41:17;;;;;;;0.32;0.32;;;5.50;99.90;;;;;;5048856;28;20052;-75
2021/11/25 08:43:43;;;;;;;0.00;0.00;;;5.60;99.90;;;;;;5050018;28;20040;-76
2021/11/25 08:46:08;;;;;;;0.20;0.20;;;5.70;99.90;;;;;;5047538;28;20025;-74
2021/11/25 08:48:34;;;;;;;0.70;0.70;;;5.70;99.90;;;;;;5048067;28;20029;-74
2021/11/25 08:51:00;;;;;;;0.28;0.28;;;5.90;99.90;;;;;;5050036;28;20060;-75
2021/11/25 08:53:26;;;;;;;0.55;0.22;;;6.00;99.90;;;;;;5049344;28;20047;-75
2021/11/25 08:55:51;;;;;;;0.28;0.20;;;6.20;99.90;;;;;;5049438;28;20511;-74
2021/11/25 08:58:17;;;;;;;1.17;0.50;;;6.30;99.90;;;;;;5050124;28;20040;-74
2021/11/25 09:00:43;;;;;;;0.22;0.22;;;6.30;99.90;;;;;;5046380;28;20021;-74
2021/11/25 09:03:09;;;;;;;0.20;0.20;;;6.40;99.90;;;;;;5050045;28;20028;-75
2021/11/25 09:05:34;;;;;;;0.55;0.30;;;6.40;99.90;;;;;;5050913;28;20047;-75
2021/11/25 09:08:01;;;;;;;0.32;0.32;;;6.50;99.90;;;;;;5047088;28;20033;-75
2021/11/25 09:10:27;;;;;;;0.90;0.52;;;6.50;99.90;;;;;;5052385;28;20044;-75
2021/11/25 09:12:53;;;;;;;0.15;0.15;;;6.60;99.90;;;;;;5050261;28;20496;-75
2021/11/25 09:15:19;;;;;;;1.55;0.57;;;6.60;99.90;;;;;;5045603;28;20060;-75
2021/11/25 09:17:45;;;;;;;0.30;0.30;;;6.60;99.90;;;;;;5046162;28;20032;-76
2021/11/25 09:20:12;;;;;;;0.93;0.93;;;6.40;99.90;;;;;;5047815;28;20029;-76
2021/11/25 09:22:38;;;;;;;0.98;0.80;;;6.40;99.90;;;;;;5050467;28;20031;-77
2021/11/25 09:25:05;;;;;;;0.75;0.75;;;6.50;99.90;;;;;;5048987;28;20052;-76
2021/11/25 09:27:31;;;;;;;5.85;1.88;;;6.50;99.90;;;;;;5050051;28;20523;-75
2021/11/25 09:29:57;;;;;;;0.20;0.20;;;6.50;99.90;;;;;;5031750;28;20118;-76
2021/11/25 09:32:23;;;;;;;4.65;1.20;;;6.50;99.90;;;;;;5050047;28;20056;-76
2021/11/25 09:34:49;;;;;;;0.52;0.40;;;6.40;99.90;;;;;;5051509;28;20392;-76
2021/11/25 09:37:14;;;;;;;4.13;2.10;;;6.20;99.90;;;;;;5049975;28;20025;-76
2021/11/25 09:39:40;;;;;;;0.73;0.73;;;6.30;99.90;;;;;;5051880;28;20031;-77
2021/11/25 09:42:06;;;;;;;1.55;0.82;;;6.20;99.90;;;;;;5034331;28;20120;-77
2021/11/25 09:44:32;;;;;;;0.40;0.40;;;6.20;99.90;;;;;;5050644;28;20028;-76
2021/11/25 09:46:58;;;;;;;0.57;0.57;;;6.20;99.90;;;;;;5050074;28;20487;-76
2021/11/25 09:49:29;;;;;;;5.47;1.00;;;6.20;99.90;;;;;;5049336;28;20032;-77
2021/11/25 09:51:55;;;;;;;0.73;0.50;;;6.20;99.90;;;;;;5040798;28;20025;-75
2021/11/25 09:54:23;;;;;;;0.88;0.65;;;6.20;99.90;;;;;;5051708;28;20484;-76
2021/11/25 09:56:51;;;;;;;0.73;0.65;;;6.10;99.90;;;;;;5050925;28;20021;-74
2021/11/25 09:59:17;;;;;;;0.10;0.10;;;6.10;99.90;;;;;;5048539;28;20417;-75
2021/11/25 10:01:43;;;;;;;0.32;0.32;;;6.10;99.90;;;;;;5049945;28;20442;-75
2021/11/25 10:04:09;;;;;;;0.30;0.30;;;6.10;99.90;;;;;;5050154;28;20118;-75
2021/11/25 10:06:52;;;;;;;0.00;0.00;;;6.10;99.90;;;;;;5050267;28;20557;-75
2021/11/25 10:09:39;;;;;;;0.75;0.75;;;6.00;99.90;;;;;;5051155;28;20025;-75
2021/11/25 10:12:32;;;;;;;0.63;0.52;;;6.10;99.90;;;;;;5042009;28;20035;-74
2021/11/25 10:15:01;;;;;;;0.15;0.15;;;6.00;99.90;;;;;;5047127;28;20072;-74
2021/11/25 10:17:47;;;;;;;0.00;0.00;;;6.10;99.90;;;;;;5049086;28;20047;-75
2021/11/25 10:20:15;;;;;;;2.17;1.00;;;6.00;99.90;;;;;;5051609;28;20491;-75
2021/11/25 10:23:02;;;;;;;0.10;0.10;;;6.00;99.90;;;;;;5051109;28;20502;-75
2021/11/25 10:25:50;;;;;;;0.25;0.25;;;6.00;99.90;;;;;;5046973;28;20052;-76
2021/11/25 10:28:24;;;;;;;0.52;0.52;;;6.00;99.90;;;;;;5050672;28;20057;-75
2021/11/25 10:30:53;;;;;;;0.00;0.00;;;6.00;99.90;;;;;;5050674;28;20075;-75
2021/11/25 10:33:29;;;;;;;0.50;0.50;;;6.10;99.90;;;;;;5046283;28;20026;-75
2021/11/25 10:38:45;;;;;;;0.20;0.20;;;6.10;99.90;;;;;;5050026;28;20035;-75
2021/11/25 10:41:18;;;;;;;0.20;0.15;;;6.10;99.90;;;;;;5049552;28;20025;-75
2021/11/25 10:43:44;;;;;;;0.13;0.13;;;5.90;99.90;;;;;;5047588;28;20036;-75
2021/11/25 10:46:10;;;;;;;0.85;0.45;;;6.10;99.90;;;;;;5049981;28;20033;-76
2021/11/25 10:48:41;;;;;;;0.80;0.35;;;6.00;99.90;;;;;;5050573;28;20024;-75
2021/11/25 10:51:34;;;;;;;0.25;0.22;;;6.00;99.90;;;;;;5049960;28;20088;-74
2021/11/25 10:54:18;;;;;;;2.15;0.70;;;6.00;99.90;;;;;;5049624;28;20021;-75
2021/11/25 10:56:53;;;;;;;1.38;0.93;;;6.00;99.90;;;;;;5049464;28;20052;-77
2021/11/25 10:59:21;;;;;;;0.25;0.25;;;6.00;99.90;;;;;;5048948;28;20411;-76
2021/11/25 11:01:50;;;;;;;0.50;0.50;;;6.00;99.90;;;;;;5049056;28;20505;-76
2021/11/25 11:04:18;;;;;;;0.10;0.10;;;6.00;99.90;;;;;;5049208;28;20033;-75
2021/11/25 11:06:44;;;;;;;0.65;0.65;;;6.10;99.90;;;;;;5050132;28;20423;-74
2021/11/25 11:09:28;;;;;;;0.40;0.40;;;6.10;99.90;;;;;;5049307;28;20037;-74
2021/11/25 11:12:17;;;;;;;1.73;0.65;;;6.10;99.90;;;;;;5044023;28;20025;-75
2021/11/25 11:14:50;;;;;;;0.20;0.20;;;6.00;99.90;;;;;;5035265;28;20017;-73
2021/11/25 11:17:30;;;;;;;0.00;0.00;;;6.00;99.90;;;;;;5049574;28;20028;-74
2021/11/25 11:20:22;;;;;;;0.00;0.00;;;6.00;99.90;;;;;;5049805;28;20029;-74
2021/11/25 11:23:00;;;;;;;1.42;1.00;;;6.00;99.90;;;;;;5046074;28;20440;-74
2021/11/25 11:25:26;;;;;;;0.30;0.30;;;6.10;99.90;;;;;;5046860;28;20091;-76
2021/11/25 11:27:55;;;;;;;1.30;1.15;;;6.10;99.90;;;;;;5050216;28;20021;-78
2021/11/25 11:30:22;;;;;;;0.65;0.65;;;6.20;99.90;;;;;;5053078;28;20021;-77
2021/11/25 11:32:47;;;;;;;2.90;0.70;;;6.30;99.90;;;;;;5051744;28;20025;-76
2021/11/25 11:35:14;;;;;;;0.10;0.10;;;6.40;99.90;;;;;;5050944;28;20526;-75
2021/11/25 11:37:41;;;;;;;0.32;0.32;;;6.40;99.90;;;;;;5052996;28;20039;-74
2021/11/25 11:40:08;;;;;;;0.77;0.45;;;6.50;99.90;;;;;;5052938;28;20044;-76
2021/11/25 11:42:35;;;;;;;0.57;0.47;;;6.40;99.90;;;;;;5050886;28;20052;-77
2021/11/25 11:45:03;;;;;;;0.40;0.40;;;6.50;99.90;;;;;;5052771;28;20033;-77
2021/11/25 11:47:29;;;;;;;0.55;0.55;;;6.60;99.90;;;;;;5052535;28;20395;-76
2021/11/25 11:50:03;;;;;;;0.57;0.57;;;6.50;99.90;;;;;;5050993;28;20033;-77
2021/11/25 11:52:28;;;;;;;0.30;0.30;;;6.50;99.90;;;;;;5051648;28;20021;-76
2021/11/25 11:54:58;;;;;;;20.05;0.88;;;6.50;99.90;;;;;;5053790;28;20123;-73
2021/11/25 11:57:39;;;;;;;0.10;0.10;;;6.50;99.90;;;;;;5052196;28;20044;-75
2021/11/25 12:00:08;;;;;;;0.30;0.30;;;6.40;99.90;;;;;;5048672;28;20025;-74
2021/11/25 12:02:46;;;;;;;0.00;0.00;;;6.50;99.90;;;;;;5051800;28;20480;-74
2021/11/25 12:05:47;;;;;;;0.20;0.20;;;6.50;99.90;;;;;;5049636;28;20041;-73
2021/11/25 12:08:19;;;;;;;0.10;0.05;;;6.40;99.90;;;;;;5051613;28;20017;-77
2021/11/25 12:10:57;;;;;;;1.25;0.50;;;6.40;99.90;;;;;;5051888;28;20049;-79
2021/11/25 12:13:28;;;;;;;0.10;0.10;;;6.40;99.90;;;;;;5049907;28;20017;-77
2021/11/25 12:16:19;;;;;;;0.00;0.00;;;6.40;99.90;;;;;;5052060;28;20036;-77
2021/11/25 12:18:53;;;;;;;0.25;0.25;;;6.40;99.90;;;;;;5046647;28;20534;-77
2021/11/25 12:21:44;;;;;;;0.00;0.00;;;6.50;99.90;;;;;;5052147;28;20029;-75
2021/11/25 12:24:28;;;;;;;0.00;0.00;;;6.60;99.90;;;;;;5046373;28;20052;-77
2021/11/25 12:27:02;;;;;;;0.38;0.38;;;6.60;99.90;;;;;;5045825;28;20051;-80
2021/11/25 12:29:36;;;;;;;0.17;0.17;;;6.60;99.90;;;;;;5053536;28;20022;-81
2021/11/25 12:32:41;;;;;;;0.45;0.45;;;6.50;99.90;;;;;;5051532;28;20033;-79
2021/11/25 12:35:17;;;;;;;0.00;0.00;;;6.40;99.90;;;;;;5048650;28;20045;-82
2021/11/25 12:37:58;;;;;;;1.67;0.70;;;6.40;99.90;;;;;;5049759;28;20041;-79
2021/11/25 12:40:23;;;;;;;0.10;0.10;;;6.50;99.90;;;;;;5052908;28;20025;-81
2021/11/25 12:43:09;;;;;;;0.13;0.13;;;6.50;99.90;;;;;;5050379;28;20464;-82
2021/11/25 12:45:35;;;;;;;0.47;0.32;;;6.50;99.90;;;;;;5052751;28;20036;-82
2021/11/25 12:48:12;;;;;;;0.10;0.10;;;6.40;99.90;;;;;;5051804;28;20037;-86
2021/11/25 12:50:39;;;;;;;0.00;0.00;;;6.40;99.90;;;;;;5046157;28;20130;-78
2021/11/25 12:53:08;;;;;;;8.57;1.85;;;6.40;99.90;;;;;;5051262;28;20103;-79
2021/11/25 12:55:34;;;;;;;0.52;0.40;;;6.40;99.90;;;;;;5052647;28;20032;-78
2021/11/25 12:58:00;;;;;;;0.20;0.20;;;6.50;99.90;;;;;;5051910;28;20396;-81
2021/11/25 13:00:30;;;;;;;0.25;0.25;;;6.50;99.90;;;;;;5050695;28;20029;-78
2021/11/25 13:03:19;;;;;;;1.15;0.47;;;6.60;99.90;;;;;;5044690;28;20032;-77
2021/11/25 13:05:49;;;;;;;0.10;0.10;;;6.60;99.90;;;;;;5046358;28;20170;-77
2021/11/25 13:08:33;;;;;;;0.00;0.00;;;6.70;99.90;;;;;;5049128;28;20052;-79
2021/11/25 13:11:01;;;;;;;0.65;0.35;;;6.80;99.90;;;;;;5039056;28;20033;-77
2021/11/25 13:13:29;;;;;;;0.00;0.00;;;6.80;99.90;;;;;;5047711;28;20029;-77